createdAt,value
2018-06-12T00:00:14.819Z,13.30
2018-06-12T00:02:43.308Z,13.30
2018-06-12T00:05:11.725Z,13.30
2018-06-12T00:07:40.825Z,13.30
2018-06-12T00:10:09.475Z,13.40
2018-06-12T00:12:38.006Z,13.30
2018-06-12T00:15:06.667Z,13.30
2018-06-12T00:17:35.268Z,13.30
2018-06-12T00:20:03.919Z,13.20
2018-06-12T00:22:33.179Z,13.20
2018-06-12T00:25:01.822Z,13.20
2018-06-12T00:27:30.300Z,13.10
2018-06-12T00:29:58.759Z,13.00
2018-06-12T00:32:27.290Z,13.10
2018-06-12T00:34:55.999Z,13.20
2018-06-12T00:37:24.398Z,13.30
2018-06-12T00:39:53.009Z,13.30
2018-06-12T00:42:21.410Z,13.40
2018-06-12T00:44:50.098Z,13.50
2018-06-12T00:47:18.487Z,13.60
2018-06-12T00:49:47.007Z,13.70
2018-06-12T00:52:15.628Z,13.80
2018-06-12T00:54:44.159Z,13.80
2018-06-12T00:57:12.688Z,13.80
2018-06-12T00:59:41.173Z,13.80
2018-06-12T01:02:09.710Z,13.80
2018-06-12T01:04:38.116Z,13.90
2018-06-12T01:07:06.623Z,14.40
2018-06-12T01:09:35.115Z,14.50
2018-06-12T01:12:03.773Z,14.30
2018-06-12T01:14:32.215Z,14.30
2018-06-12T01:17:00.686Z,14.30
2018-06-12T01:19:29.080Z,14.30
2018-06-12T01:21:57.487Z,14.20
2018-06-12T01:24:25.936Z,14.20
2018-06-12T01:26:54.353Z,14.40
2018-06-12T01:29:22.737Z,14.60
2018-06-12T01:31:51.212Z,14.70
2018-06-12T01:34:19.611Z,14.50
2018-06-12T01:36:48.668Z,14.30
2018-06-12T01:39:17.214Z,14.20
2018-06-12T01:41:45.811Z,14.20
2018-06-12T01:44:14.551Z,14.50
2018-06-12T01:46:42.995Z,14.40
2018-06-12T01:49:11.564Z,14.30
2018-06-12T01:51:40.363Z,14.20
2018-06-12T01:54:08.823Z,14.10
2018-06-12T01:56:37.419Z,14.00
2018-06-12T01:59:05.942Z,13.90
2018-06-12T02:01:35.351Z,13.90
2018-06-12T02:04:03.886Z,14.00
2018-06-12T02:06:32.416Z,14.00
2018-06-12T02:09:00.924Z,13.90
2018-06-12T02:11:29.603Z,13.90
2018-06-12T02:13:58.039Z,13.90
2018-06-12T02:16:26.703Z,13.90
2018-06-12T02:18:55.227Z,13.90
2018-06-12T02:21:24.468Z,13.90
2018-06-12T02:23:53.246Z,14.00
2018-06-12T02:26:21.947Z,14.00
2018-06-12T02:28:50.702Z,14.10
2018-06-12T02:31:19.371Z,14.10
2018-06-12T02:33:47.942Z,14.20
2018-06-12T02:36:16.512Z,14.10
2018-06-12T02:38:45.047Z,14.20
2018-06-12T02:41:13.463Z,14.20
2018-06-12T02:43:42.863Z,14.20
2018-06-12T02:46:11.400Z,14.30
2018-06-12T02:48:40.143Z,14.70
2018-06-12T02:51:08.691Z,14.80
2018-06-12T02:53:37.272Z,14.80
2018-06-12T02:56:05.844Z,14.90
2018-06-12T02:58:34.627Z,14.90
2018-06-12T03:01:03.175Z,14.90
2018-06-12T03:03:32.170Z,14.80
2018-06-12T03:06:00.768Z,14.80
2018-06-12T03:08:29.302Z,14.70
2018-06-12T03:10:58.208Z,14.70
2018-06-12T03:13:26.760Z,14.80
2018-06-12T03:15:55.227Z,14.90
2018-06-12T03:18:23.663Z,14.90
2018-06-12T03:20:52.226Z,15.00
2018-06-12T03:23:20.711Z,15.00
2018-06-12T03:25:57.605Z,15.00
2018-06-12T03:28:26.743Z,14.90
2018-06-12T03:30:55.207Z,15.10
2018-06-12T03:33:23.777Z,15.20
2018-06-12T03:35:53.676Z,15.10
2018-06-12T03:38:22.301Z,15.00
2018-06-12T03:40:50.806Z,14.90
2018-06-12T03:43:19.397Z,14.90
2018-06-12T03:45:48.077Z,14.90
2018-06-12T03:48:17.239Z,15.10
2018-06-12T03:50:45.748Z,15.30
2018-06-12T03:53:15.130Z,15.60
2018-06-12T03:55:43.962Z,15.60
2018-06-12T03:58:12.462Z,15.50
2018-06-12T04:00:41.932Z,15.40
2018-06-12T04:03:10.465Z,15.30
2018-06-12T04:05:39.180Z,15.20
2018-06-12T04:10:36.875Z,15.10
2018-06-12T04:13:05.592Z,15.10
2018-06-12T04:15:34.179Z,15.20
2018-06-12T04:18:02.630Z,15.40
2018-06-12T04:20:31.290Z,15.50
2018-06-12T04:22:59.834Z,15.50
2018-06-12T04:25:28.353Z,15.60
2018-06-12T04:28:01.218Z,15.50
2018-06-12T04:30:29.824Z,15.60
2018-06-12T04:32:58.379Z,15.70
2018-06-12T04:35:26.937Z,15.50
2018-06-12T04:37:55.479Z,15.40
2018-06-12T04:40:23.987Z,15.40
2018-06-12T04:42:53.065Z,15.50
2018-06-12T04:45:21.899Z,15.50
2018-06-12T04:50:18.862Z,15.70
2018-06-12T04:52:47.573Z,15.90
2018-06-12T04:55:16.530Z,16.10
2018-06-12T04:57:45.107Z,16.10
2018-06-12T05:00:13.904Z,16.40
2018-06-12T05:02:42.519Z,16.50
2018-06-12T05:05:11.066Z,16.50
2018-06-12T05:07:39.671Z,16.70
2018-06-12T05:10:08.215Z,16.70
2018-06-12T05:12:36.720Z,16.60
2018-06-12T05:15:05.263Z,16.60
2018-06-12T05:17:34.196Z,16.70
2018-06-12T05:20:02.787Z,16.80
2018-06-12T05:22:31.265Z,16.80
2018-06-12T05:24:59.773Z,16.90
2018-06-12T05:27:28.457Z,16.90
2018-06-12T05:29:57.067Z,16.80
2018-06-12T05:32:25.640Z,16.90
2018-06-12T05:34:54.231Z,16.90
2018-06-12T05:37:22.860Z,16.80
2018-06-12T05:39:51.316Z,16.90
2018-06-12T05:42:20.000Z,16.90
2018-06-12T05:44:48.585Z,17.10
2018-06-12T05:47:17.042Z,17.00
2018-06-12T05:49:45.707Z,17.00
2018-06-12T05:52:14.144Z,17.00
2018-06-12T05:54:42.815Z,16.90
2018-06-12T05:57:11.330Z,16.90
2018-06-12T05:59:39.777Z,17.00
2018-06-12T06:02:08.239Z,17.00
2018-06-12T06:04:36.747Z,17.00
2018-06-12T06:07:05.320Z,16.90
2018-06-12T06:09:33.916Z,16.90
2018-06-12T06:12:02.464Z,16.80
2018-06-12T06:14:31.239Z,16.80
2018-06-12T06:16:59.807Z,16.80
2018-06-12T06:19:28.460Z,16.90
2018-06-12T06:21:57.094Z,17.00
2018-06-12T06:24:25.651Z,17.10
2018-06-12T06:26:54.206Z,17.20
2018-06-12T06:29:22.832Z,17.30
2018-06-12T06:31:51.283Z,17.40
2018-06-12T06:34:20.243Z,17.40
2018-06-12T06:36:48.801Z,17.50
2018-06-12T06:39:17.476Z,17.60
2018-06-12T06:41:45.932Z,17.70
2018-06-12T06:44:15.436Z,17.90
2018-06-12T06:46:44.392Z,18.10
2018-06-12T06:49:12.934Z,18.30
2018-06-12T06:51:41.453Z,18.40
2018-06-12T06:54:10.164Z,18.70
2018-06-12T06:56:38.676Z,18.70
2018-06-12T06:59:07.306Z,18.80
2018-06-12T07:01:36.156Z,18.90
2018-06-12T07:04:04.723Z,18.90
2018-06-12T07:06:33.279Z,19.00
2018-06-12T07:09:02.670Z,18.90
2018-06-12T07:11:31.021Z,18.70
2018-06-12T07:13:59.641Z,18.70
2018-06-12T07:16:28.406Z,18.60
2018-06-12T07:18:56.849Z,18.50
2018-06-12T07:21:25.352Z,18.40
2018-06-12T07:23:53.976Z,18.50
2018-06-12T07:26:22.432Z,18.50
2018-06-12T07:28:51.081Z,18.60
2018-06-12T07:31:19.556Z,18.80
2018-06-12T07:33:48.352Z,18.80
2018-06-12T07:36:17.083Z,18.80
2018-06-12T07:38:45.770Z,18.90
2018-06-12T07:41:14.429Z,18.80
2018-06-12T07:43:43.063Z,19.00
2018-06-12T07:46:11.592Z,19.00
2018-06-12T07:48:40.072Z,19.10
2018-06-12T07:51:08.720Z,19.10
2018-06-12T07:53:37.210Z,19.20
2018-06-12T07:56:05.857Z,19.10
2018-06-12T07:58:34.331Z,19.30
2018-06-12T08:01:02.912Z,19.40
2018-06-12T08:03:31.396Z,19.50
2018-06-12T08:06:01.059Z,19.50
2018-06-12T08:08:29.651Z,19.70
2018-06-12T08:10:58.467Z,19.70
2018-06-12T08:13:26.920Z,19.90
2018-06-12T08:15:55.361Z,20.10
2018-06-12T08:18:23.981Z,20.40
2018-06-12T08:20:52.532Z,20.40
2018-06-12T08:23:21.224Z,20.60
2018-06-12T08:25:49.656Z,20.70
2018-06-12T08:28:18.193Z,20.80
2018-06-12T08:30:46.663Z,21.00
2018-06-12T08:33:15.219Z,21.10
2018-06-12T08:35:43.848Z,21.30
2018-06-12T08:38:12.279Z,21.80
2018-06-12T08:40:40.707Z,22.30
2018-06-12T08:43:09.482Z,22.70
2018-06-12T08:45:37.915Z,22.80
2018-06-12T08:48:06.508Z,23.00
2018-06-12T08:50:34.968Z,23.10
2018-06-12T08:53:03.548Z,22.60
2018-06-12T08:55:32.129Z,22.70
2018-06-12T08:58:00.695Z,22.70
2018-06-12T09:00:29.204Z,22.80
2018-06-12T09:02:57.904Z,22.70
2018-06-12T09:05:27.116Z,22.50
2018-06-12T09:07:55.667Z,22.70
2018-06-12T09:10:24.249Z,23.00
2018-06-12T09:12:52.736Z,22.90
2018-06-12T09:15:21.373Z,22.90
2018-06-12T09:17:49.952Z,22.90
2018-06-12T09:20:18.488Z,22.90
2018-06-12T09:22:47.065Z,22.90
2018-06-12T09:25:15.537Z,22.60
2018-06-12T09:27:50.584Z,22.60
2018-06-12T09:30:19.215Z,22.60
2018-06-12T09:32:48.008Z,22.60
2018-06-12T09:35:16.464Z,22.40
2018-06-12T09:37:45.614Z,22.40
2018-06-12T09:40:14.141Z,22.40
2018-06-12T09:42:43.359Z,22.40
2018-06-12T09:45:12.574Z,22.50
2018-06-12T09:47:41.031Z,22.40
2018-06-12T09:50:09.821Z,22.20
2018-06-12T09:52:38.267Z,22.50
2018-06-12T09:55:06.931Z,22.60
2018-06-12T09:57:35.432Z,22.70
2018-06-12T10:00:04.015Z,22.90
2018-06-12T10:02:33.155Z,23.20
2018-06-12T10:05:01.909Z,23.50
2018-06-12T10:07:30.912Z,23.90
2018-06-12T10:09:59.784Z,24.10
2018-06-12T10:12:28.255Z,24.30
2018-06-12T10:14:56.838Z,24.10
2018-06-12T10:17:25.345Z,24.00
2018-06-12T10:19:53.784Z,23.80
2018-06-12T10:22:22.353Z,23.80
2018-06-12T10:24:50.811Z,23.90
2018-06-12T10:27:19.372Z,23.70
2018-06-12T10:29:47.845Z,23.80
2018-06-12T10:32:16.279Z,23.80
2018-06-12T10:34:44.749Z,24.30
2018-06-12T10:37:13.329Z,24.60
2018-06-12T10:39:41.653Z,24.90
2018-06-12T10:42:10.213Z,25.30
2018-06-12T10:44:38.983Z,25.60
2018-06-12T10:47:07.507Z,25.50
2018-06-12T10:49:35.973Z,25.60
2018-06-12T10:52:04.799Z,25.70
2018-06-12T10:54:33.409Z,25.60
2018-06-12T10:57:02.268Z,25.20
2018-06-12T10:59:30.692Z,25.00
2018-06-12T11:01:59.276Z,24.70
2018-06-12T11:04:27.827Z,24.70
2018-06-12T11:06:56.242Z,24.90
2018-06-12T11:09:24.676Z,24.90
2018-06-12T11:11:53.176Z,24.90
2018-06-12T11:14:21.811Z,24.80
2018-06-12T11:16:50.212Z,24.80
2018-06-12T11:19:18.748Z,24.70
2018-06-12T11:21:47.154Z,24.60
2018-06-12T11:24:15.697Z,24.10
2018-06-12T11:26:44.118Z,23.30
2018-06-12T11:29:12.594Z,23.10
2018-06-12T11:31:41.212Z,22.80
2018-06-12T11:34:09.691Z,22.50
2018-06-12T11:36:38.140Z,22.30
2018-06-12T11:39:08.455Z,22.20
2018-06-12T11:41:37.524Z,21.70
2018-06-12T11:44:06.061Z,21.40
2018-06-12T11:46:34.559Z,21.40
2018-06-12T11:49:03.025Z,20.90
2018-06-12T11:51:31.538Z,20.30
2018-06-12T11:54:00.035Z,19.80
2018-06-12T11:56:28.493Z,19.40
2018-06-12T11:58:57.079Z,19.00
2018-06-12T12:01:25.571Z,18.90
2018-06-12T12:03:54.106Z,18.80
2018-06-12T12:06:22.542Z,18.90
2018-06-12T12:08:51.147Z,18.90
2018-06-12T12:11:19.584Z,19.10
2018-06-12T12:13:48.155Z,19.00
2018-06-12T12:16:17.489Z,18.90
2018-06-12T12:21:14.265Z,18.70
2018-06-12T12:26:10.903Z,18.40
2018-06-12T12:28:39.390Z,18.40
2018-06-12T12:31:08.048Z,18.40
2018-06-12T12:33:36.460Z,18.30
2018-06-12T12:36:06.790Z,18.30
2018-06-12T12:38:35.364Z,18.40
2018-06-12T12:41:03.897Z,18.40
2018-06-12T12:43:32.381Z,18.30
2018-06-12T12:46:00.874Z,18.40
2018-06-12T12:48:29.473Z,18.40
2018-06-12T12:50:57.917Z,18.10
2018-06-12T12:53:26.447Z,17.90
2018-06-12T12:55:54.922Z,17.70
2018-06-12T12:58:23.343Z,17.40
2018-06-12T13:00:51.927Z,17.30
2018-06-12T13:03:20.402Z,17.30
2018-06-12T13:05:49.100Z,17.50
2018-06-12T13:08:17.836Z,17.60
2018-06-12T13:10:46.386Z,17.60
2018-06-12T13:13:14.850Z,17.70
2018-06-12T13:15:43.588Z,17.70
2018-06-12T13:18:12.196Z,17.80
2018-06-12T13:20:40.643Z,18.00
2018-06-12T13:25:37.264Z,18.20
2018-06-12T13:28:05.840Z,18.40
2018-06-12T13:30:34.333Z,18.40
2018-06-12T13:33:02.784Z,18.60
2018-06-12T13:35:31.470Z,18.80
2018-06-12T13:37:59.944Z,18.90
2018-06-12T13:40:28.420Z,18.90
2018-06-12T13:42:56.887Z,18.80
2018-06-12T13:45:25.505Z,18.80
2018-06-12T13:47:54.041Z,18.80
2018-06-12T13:50:22.481Z,19.20
2018-06-12T13:52:51.169Z,19.80
2018-06-12T13:55:19.751Z,20.10
2018-06-12T13:57:48.200Z,20.40
2018-06-12T14:00:16.683Z,20.70
2018-06-12T14:02:45.804Z,21.00
2018-06-12T14:05:15.218Z,21.40
2018-06-12T14:07:43.871Z,21.60
2018-06-12T14:10:12.367Z,22.40
2018-06-12T14:12:40.958Z,22.80
2018-06-12T14:15:09.470Z,23.00
2018-06-12T14:17:38.265Z,23.30
2018-06-12T14:20:06.859Z,22.90
2018-06-12T14:22:35.767Z,22.70
2018-06-12T14:25:04.285Z,22.40
2018-06-12T14:27:32.865Z,22.10
2018-06-12T14:30:01.399Z,21.70
2018-06-12T14:32:30.066Z,21.60
2018-06-12T14:34:58.603Z,21.50
2018-06-12T14:37:27.230Z,21.40
2018-06-12T14:39:55.964Z,21.30
2018-06-12T14:42:24.421Z,21.20
2018-06-12T14:44:52.983Z,21.00
2018-06-12T14:47:21.561Z,20.60
2018-06-12T14:49:50.035Z,20.40
2018-06-12T14:52:18.593Z,20.50
2018-06-12T14:57:15.521Z,20.50
2018-06-12T14:59:44.068Z,20.50
2018-06-12T15:02:12.803Z,20.30
2018-06-12T15:04:41.529Z,20.30
2018-06-12T15:07:10.015Z,20.10
2018-06-12T15:09:38.488Z,20.00
2018-06-12T15:12:07.305Z,19.80
2018-06-12T15:14:35.980Z,19.60
2018-06-12T15:17:04.648Z,19.50
2018-06-12T15:19:33.189Z,19.30
2018-06-12T15:22:01.910Z,19.40
2018-06-12T15:24:30.657Z,19.30
2018-06-12T15:26:59.212Z,19.40
2018-06-12T15:29:28.378Z,19.30
2018-06-12T15:31:57.040Z,19.40
2018-06-12T15:34:25.545Z,19.20
2018-06-12T15:36:54.504Z,19.20
2018-06-12T15:39:23.131Z,19.10
2018-06-12T15:41:52.431Z,19.10
2018-06-12T15:44:21.210Z,19.10
2018-06-12T15:46:49.720Z,19.10
2018-06-12T15:49:18.438Z,19.10
2018-06-12T15:51:46.972Z,19.10
2018-06-12T15:54:15.603Z,18.90
2018-06-12T15:56:45.113Z,18.90
2018-06-12T15:59:13.648Z,19.00
2018-06-12T16:01:42.348Z,18.90
2018-06-12T16:04:11.038Z,18.90
2018-06-12T16:06:39.824Z,18.70
2018-06-12T16:09:09.206Z,18.90
2018-06-12T16:11:38.016Z,19.00
2018-06-12T16:14:07.917Z,19.10
2018-06-12T16:16:36.509Z,19.20
2018-06-12T16:19:05.078Z,19.30
2018-06-12T16:21:33.684Z,19.40
2018-06-12T16:24:02.461Z,19.40
2018-06-12T16:26:30.892Z,19.40
2018-06-12T16:29:00.738Z,19.60
2018-06-12T16:31:29.248Z,19.60
2018-06-12T16:33:57.841Z,19.60
2018-06-12T16:36:26.920Z,19.60
2018-06-12T16:38:55.394Z,19.60
2018-06-12T16:41:24.037Z,19.40
2018-06-12T16:43:52.687Z,19.50
2018-06-12T16:46:21.150Z,19.70
2018-06-12T16:48:49.592Z,19.80
2018-06-12T16:51:18.244Z,19.80
2018-06-12T16:53:46.743Z,19.70
2018-06-12T16:56:15.380Z,19.70
2018-06-12T16:58:43.928Z,19.70
2018-06-12T17:01:12.397Z,19.70
2018-06-12T17:03:41.087Z,19.90
2018-06-12T17:06:09.676Z,20.00
2018-06-12T17:08:38.247Z,20.10
2018-06-12T17:11:06.809Z,20.10
2018-06-12T17:13:35.326Z,20.10
2018-06-12T17:16:04.043Z,20.30
2018-06-12T17:18:32.785Z,20.20
2018-06-12T17:21:01.368Z,20.20
2018-06-12T17:23:30.575Z,20.10
2018-06-12T17:25:59.111Z,19.90
2018-06-12T17:28:27.634Z,19.80
2018-06-12T17:30:56.145Z,19.80
2018-06-12T17:33:24.632Z,19.80
2018-06-12T17:35:53.093Z,19.70
2018-06-12T17:38:21.766Z,19.60
2018-06-12T17:40:50.281Z,19.50
2018-06-12T17:43:18.975Z,19.40
2018-06-12T17:45:48.093Z,19.30
2018-06-12T17:48:17.008Z,19.30
2018-06-12T17:53:13.970Z,19.00
2018-06-12T17:55:42.523Z,18.70
2018-06-12T17:58:11.071Z,18.50
2018-06-12T18:00:39.669Z,18.40
2018-06-12T18:03:08.295Z,18.30
2018-06-12T18:05:36.967Z,18.30
2018-06-12T18:08:05.453Z,18.30
2018-06-12T18:10:34.191Z,18.20
2018-06-12T18:13:02.680Z,18.30
2018-06-12T18:15:31.264Z,18.20
2018-06-12T18:17:59.750Z,18.00
2018-06-12T18:20:28.309Z,17.90
2018-06-12T18:22:56.833Z,17.70
2018-06-12T18:25:25.372Z,17.60
2018-06-12T18:27:53.894Z,17.50
2018-06-12T18:30:22.614Z,17.50
2018-06-12T18:32:51.372Z,17.40
2018-06-12T18:35:19.973Z,17.30
2018-06-12T18:37:48.534Z,17.20
2018-06-12T18:40:17.408Z,17.20
2018-06-12T18:42:45.999Z,17.10
2018-06-12T18:45:14.948Z,17.00
2018-06-12T18:47:43.441Z,16.90
2018-06-12T18:50:12.011Z,16.80
2018-06-12T18:52:40.566Z,16.90
2018-06-12T18:55:09.254Z,16.90
2018-06-12T18:57:37.802Z,16.90
2018-06-12T19:00:06.615Z,16.80
2018-06-12T19:02:35.172Z,16.80
2018-06-12T19:05:03.937Z,16.60
2018-06-12T19:07:32.618Z,16.70
2018-06-12T19:10:01.196Z,16.70
2018-06-12T19:12:30.107Z,16.70
2018-06-12T19:14:58.618Z,16.80
2018-06-12T19:17:27.223Z,16.90
2018-06-12T19:19:55.994Z,16.80
2018-06-12T19:22:25.140Z,16.70
2018-06-12T19:24:53.854Z,16.70
2018-06-12T19:29:50.783Z,16.60
2018-06-12T19:32:19.531Z,16.60
2018-06-12T19:34:48.047Z,16.40
2018-06-12T19:37:16.573Z,16.40
2018-06-12T19:39:45.120Z,16.20
2018-06-12T19:42:13.614Z,16.10
2018-06-12T19:44:42.507Z,16.10
2018-06-12T19:47:10.991Z,16.20
2018-06-12T19:49:39.595Z,16.10
2018-06-12T19:52:08.140Z,16.10
2018-06-12T19:54:37.332Z,16.00
2018-06-12T19:57:05.889Z,16.00
2018-06-12T19:59:34.557Z,15.90
2018-06-12T20:02:03.314Z,15.90
2018-06-12T20:04:31.940Z,16.00
2018-06-12T20:07:00.406Z,16.00
2018-06-12T20:09:29.077Z,16.00
2018-06-12T20:11:57.619Z,16.00
2018-06-12T20:14:26.284Z,16.00
2018-06-12T20:16:54.813Z,16.00
2018-06-12T20:19:23.331Z,16.00
2018-06-12T20:21:51.819Z,16.00
2018-06-12T20:24:20.284Z,15.90
2018-06-12T20:26:49.829Z,16.00
2018-06-12T20:29:18.289Z,15.90
2018-06-12T20:31:46.846Z,15.90
2018-06-12T20:34:15.403Z,15.90
2018-06-12T20:36:43.940Z,15.80
2018-06-12T20:39:12.431Z,15.80
2018-06-12T20:41:41.117Z,15.70
2018-06-12T20:44:09.600Z,15.70
2018-06-12T20:46:38.172Z,15.80
2018-06-12T20:49:06.706Z,15.70
2018-06-12T20:51:35.155Z,15.70
2018-06-12T20:54:03.844Z,15.70
2018-06-12T20:56:32.452Z,15.60
2018-06-12T20:59:01.065Z,15.50
2018-06-12T21:01:29.544Z,15.50
2018-06-12T21:03:58.158Z,15.50
2018-06-12T21:06:26.687Z,15.40
2018-06-12T21:08:55.276Z,15.30
2018-06-12T21:11:23.802Z,15.20
2018-06-12T21:13:52.423Z,15.20
2018-06-12T21:16:21.018Z,15.10
2018-06-12T21:18:49.580Z,15.00
2018-06-12T21:21:18.704Z,14.80
2018-06-12T21:23:47.284Z,14.80
2018-06-12T21:26:15.891Z,14.70
2018-06-12T21:28:44.474Z,14.70
2018-06-12T21:31:13.008Z,14.70
2018-06-12T21:33:41.920Z,14.70
2018-06-12T21:36:10.443Z,14.70
2018-06-12T21:38:39.275Z,14.70
2018-06-12T21:41:07.807Z,14.60
2018-06-12T21:43:37.123Z,14.60
2018-06-12T21:46:06.074Z,14.60
2018-06-12T21:48:34.605Z,14.50
2018-06-12T21:51:04.078Z,14.50
2018-06-12T21:53:32.572Z,14.50
2018-06-12T21:56:01.092Z,14.50
2018-06-12T21:58:29.688Z,14.40
2018-06-12T22:00:58.495Z,14.40
2018-06-12T22:03:27.085Z,14.40
2018-06-12T22:05:56.244Z,14.40
2018-06-12T22:08:24.935Z,14.40
2018-06-12T22:10:53.612Z,14.40
2018-06-12T22:13:22.899Z,14.40
2018-06-12T22:15:51.335Z,14.40
2018-06-12T22:18:19.864Z,14.40
2018-06-12T22:20:48.313Z,14.30
2018-06-12T22:23:16.925Z,14.30
2018-06-12T22:25:46.275Z,14.30
2018-06-12T22:28:15.426Z,14.30
2018-06-12T22:30:44.056Z,14.30
2018-06-12T22:33:12.732Z,14.20
2018-06-12T22:35:41.415Z,14.20
2018-06-12T22:38:10.167Z,14.10
2018-06-12T22:40:38.885Z,14.10
2018-06-12T22:43:07.459Z,14.10
2018-06-12T22:45:35.981Z,14.10
2018-06-12T22:48:04.634Z,14.10
2018-06-12T22:50:33.111Z,14.10
2018-06-12T22:53:01.536Z,14.00
2018-06-12T22:55:30.852Z,14.00
2018-06-12T22:57:59.333Z,14.00
2018-06-12T23:00:27.951Z,14.00
2018-06-12T23:02:57.469Z,13.90
2018-06-12T23:05:25.984Z,13.80
2018-06-12T23:07:54.725Z,13.80
2018-06-12T23:10:23.289Z,13.70
2018-06-12T23:12:52.161Z,13.60
2018-06-12T23:15:21.404Z,13.60
2018-06-12T23:17:49.951Z,13.50
2018-06-12T23:20:29.757Z,13.50
2018-06-12T23:22:58.182Z,13.50
2018-06-12T23:25:26.779Z,13.60
2018-06-12T23:27:55.500Z,13.60
2018-06-12T23:30:24.026Z,13.70
2018-06-12T23:32:52.489Z,13.70
2018-06-12T23:35:21.007Z,13.60
2018-06-12T23:37:49.664Z,13.50
2018-06-12T23:40:18.235Z,13.60
2018-06-12T23:42:47.140Z,13.60
2018-06-12T23:45:15.707Z,13.70
2018-06-12T23:47:44.164Z,13.70
2018-06-12T23:50:12.649Z,13.60
2018-06-12T23:52:41.199Z,13.60
2018-06-12T23:55:10.376Z,13.60
2018-06-12T23:57:39.504Z,13.60
